createdAt,value
2023-05-01T00:00:51.871Z,481.00
2023-05-01T00:01:51.905Z,480.00
2023-05-01T00:02:52.124Z,479.00
2023-05-01T00:03:52.167Z,477.00
2023-05-01T00:04:52.028Z,479.00
2023-05-01T00:05:51.948Z,486.00
2023-05-01T00:06:52.062Z,484.00
2023-05-01T00:07:52.002Z,486.00
2023-05-01T00:08:51.997Z,490.00
2023-05-01T00:09:52.062Z,486.00
2023-05-01T00:10:52.060Z,486.00
2023-05-01T00:11:52.089Z,483.00
2023-05-01T00:12:52.103Z,481.00
2023-05-01T00:13:52.128Z,482.00
2023-05-01T00:14:52.162Z,483.00
2023-05-01T00:15:52.183Z,484.00
2023-05-01T00:16:52.376Z,486.00
2023-05-01T00:17:52.254Z,486.00
2023-05-01T00:18:52.236Z,484.00
2023-05-01T00:19:52.243Z,486.00
2023-05-01T00:20:52.269Z,485.00
2023-05-01T00:21:52.287Z,486.00
2023-05-01T00:22:52.319Z,484.00
2023-05-01T00:23:52.335Z,484.00
2023-05-01T00:24:52.346Z,484.00
2023-05-01T00:25:52.381Z,484.00
2023-05-01T00:26:52.435Z,485.00
2023-05-01T00:27:52.497Z,484.00
2023-05-01T00:28:52.556Z,482.00
2023-05-01T00:29:52.602Z,480.00
2023-05-01T00:30:52.620Z,481.00
2023-05-01T00:31:52.731Z,484.00
2023-05-01T00:32:52.787Z,485.00
2023-05-01T00:33:52.683Z,483.00
2023-05-01T00:34:52.705Z,482.00
2023-05-01T00:35:52.717Z,481.00
2023-05-01T00:36:52.728Z,482.00
2023-05-01T00:37:52.747Z,482.00
2023-05-01T00:38:52.774Z,480.00
2023-05-01T00:39:52.800Z,483.00
2023-05-01T00:40:52.795Z,485.00
2023-05-01T00:41:52.821Z,483.00
2023-05-01T00:42:52.841Z,483.00
2023-05-01T00:43:52.844Z,480.00
2023-05-01T00:44:52.865Z,480.00
2023-05-01T00:45:52.940Z,482.00
2023-05-01T00:46:52.885Z,483.00
2023-05-01T00:47:53.005Z,484.00
2023-05-01T00:48:52.912Z,484.00
2023-05-01T00:49:53.071Z,481.00
2023-05-01T00:50:52.984Z,480.00
2023-05-01T00:51:52.979Z,479.00
2023-05-01T00:52:52.980Z,480.00
2023-05-01T00:53:53.135Z,478.00
2023-05-01T00:54:53.002Z,478.00
2023-05-01T00:55:53.024Z,480.00
2023-05-01T00:56:53.064Z,478.00
2023-05-01T00:57:53.072Z,478.00
2023-05-01T00:58:53.097Z,481.00
2023-05-01T00:59:53.174Z,481.00
2023-05-01T01:00:53.204Z,482.00
2023-05-01T01:01:55.652Z,484.00
2023-05-01T01:02:53.155Z,482.00
2023-05-01T01:03:53.194Z,480.00
2023-05-01T01:04:53.251Z,480.00
2023-05-01T01:05:53.200Z,482.00
2023-05-01T01:06:53.202Z,480.00
2023-05-01T01:07:53.211Z,477.00
2023-05-01T01:08:53.216Z,478.00
2023-05-01T01:09:53.245Z,477.00
2023-05-01T01:10:53.290Z,478.00
2023-05-01T01:11:53.267Z,479.00
2023-05-01T01:12:53.287Z,479.00
2023-05-01T01:13:53.289Z,478.00
2023-05-01T01:14:53.311Z,478.00
2023-05-01T01:15:53.328Z,477.00
2023-05-01T01:16:53.329Z,478.00
2023-05-01T01:17:53.349Z,475.00
2023-05-01T01:18:53.350Z,472.00
2023-05-01T01:19:53.643Z,471.00
2023-05-01T01:20:53.386Z,473.00
2023-05-01T01:21:53.382Z,474.00
2023-05-01T01:22:53.388Z,473.00
2023-05-01T01:23:53.409Z,472.00
2023-05-01T01:24:53.423Z,472.00
2023-05-01T01:25:53.597Z,472.00
2023-05-01T01:26:53.457Z,471.00
2023-05-01T01:27:53.457Z,471.00
2023-05-01T01:28:53.500Z,469.00
2023-05-01T01:29:53.656Z,467.00
2023-05-01T01:30:53.572Z,467.00
2023-05-01T01:31:53.534Z,470.00
2023-05-01T01:32:53.690Z,469.00
2023-05-01T01:33:53.561Z,472.00
2023-05-01T01:34:53.585Z,473.00
2023-05-01T01:35:53.619Z,475.00
2023-05-01T01:36:53.634Z,476.00
2023-05-01T01:37:53.648Z,476.00
2023-05-01T01:38:53.675Z,477.00
2023-05-01T01:39:53.988Z,476.00
2023-05-01T01:40:53.712Z,477.00
2023-05-01T01:41:53.738Z,477.00
2023-05-01T01:42:53.750Z,475.00
2023-05-01T01:43:53.757Z,474.00
2023-05-01T01:44:53.796Z,472.00
2023-05-01T01:45:53.828Z,469.00
2023-05-01T01:46:53.812Z,468.00
2023-05-01T01:47:53.884Z,466.00
2023-05-01T01:48:53.842Z,465.00
2023-05-01T01:49:54.073Z,468.00
2023-05-01T01:50:53.877Z,469.00
2023-05-01T01:51:53.879Z,469.00
2023-05-01T01:52:53.895Z,471.00
2023-05-01T01:53:53.892Z,472.00
2023-05-01T01:54:53.921Z,471.00
2023-05-01T01:55:53.914Z,475.00
2023-05-01T01:56:53.948Z,473.00
2023-05-01T01:57:53.926Z,474.00
2023-05-01T01:58:53.945Z,475.00
2023-05-01T01:59:54.089Z,475.00
2023-05-01T02:00:53.968Z,473.00
2023-05-01T02:01:54.027Z,469.00
2023-05-01T02:02:54.125Z,467.00
2023-05-01T02:03:54.168Z,470.00
2023-05-01T02:04:54.010Z,472.00
2023-05-01T02:05:54.031Z,474.00
2023-05-01T02:06:54.062Z,472.00
2023-05-01T02:07:54.069Z,468.00
2023-05-01T02:08:54.103Z,466.00
2023-05-01T02:09:54.151Z,462.00
2023-05-01T02:10:54.146Z,467.00
2023-05-01T02:11:54.169Z,470.00
2023-05-01T02:12:54.213Z,470.00
2023-05-01T02:13:54.211Z,469.00
2023-05-01T02:14:54.229Z,472.00
2023-05-01T02:15:54.289Z,470.00
2023-05-01T02:16:54.264Z,469.00
2023-05-01T02:17:54.324Z,468.00
2023-05-01T02:18:54.301Z,468.00
2023-05-01T02:19:54.503Z,466.00
2023-05-01T02:20:54.344Z,464.00
2023-05-01T02:21:54.364Z,466.00
2023-05-01T02:22:54.376Z,470.00
2023-05-01T02:23:54.384Z,469.00
2023-05-01T02:24:54.407Z,468.00
2023-05-01T02:25:54.443Z,468.00
2023-05-01T02:26:54.460Z,467.00
2023-05-01T02:27:54.477Z,465.00
2023-05-01T02:28:54.497Z,465.00
2023-05-01T02:29:54.807Z,465.00
2023-05-01T02:30:54.547Z,467.00
2023-05-01T02:31:54.614Z,468.00
2023-05-01T02:32:54.601Z,470.00
2023-05-01T02:33:54.591Z,470.00
2023-05-01T02:34:54.596Z,470.00
2023-05-01T02:35:54.619Z,471.00
2023-05-01T02:36:54.636Z,472.00
2023-05-01T02:37:54.669Z,478.00
2023-05-01T02:38:54.685Z,478.00
2023-05-01T02:39:54.906Z,477.00
2023-05-01T02:40:54.731Z,473.00
2023-05-01T02:41:54.731Z,474.00
2023-05-01T02:42:54.736Z,474.00
2023-05-01T02:43:54.739Z,469.00
2023-05-01T02:44:54.756Z,468.00
2023-05-01T02:45:55.105Z,468.00
2023-05-01T02:46:54.849Z,472.00
2023-05-01T02:47:54.884Z,477.00
2023-05-01T02:48:54.816Z,476.00
2023-05-01T02:49:55.114Z,476.00
2023-05-01T02:50:54.838Z,474.00
2023-05-01T02:51:54.849Z,472.00
2023-05-01T02:52:54.856Z,473.00
2023-05-01T02:53:54.874Z,473.00
2023-05-01T02:54:54.885Z,471.00
2023-05-01T02:55:54.913Z,473.00
2023-05-01T02:56:54.910Z,475.00
2023-05-01T02:57:54.914Z,474.00
2023-05-01T02:58:54.926Z,475.00
2023-05-01T02:59:55.085Z,474.00
2023-05-01T03:00:55.023Z,474.00
2023-05-01T03:01:54.968Z,474.00
2023-05-01T03:02:55.020Z,474.00
2023-05-01T03:03:55.018Z,473.00
2023-05-01T03:04:55.001Z,472.00
2023-05-01T03:05:55.017Z,467.00
2023-05-01T03:06:55.024Z,463.00
2023-05-01T03:07:55.063Z,454.00
2023-05-01T03:08:55.062Z,455.00
2023-05-01T03:09:55.396Z,452.00
2023-05-01T03:10:55.115Z,456.00
2023-05-01T03:11:55.136Z,456.00
2023-05-01T03:12:55.162Z,454.00
2023-05-01T03:13:55.191Z,451.00
2023-05-01T03:14:55.208Z,450.00
2023-05-01T03:15:55.336Z,449.00
2023-05-01T03:16:55.340Z,448.00
2023-05-01T03:17:55.381Z,448.00
2023-05-01T03:18:55.369Z,444.00
2023-05-01T03:19:55.598Z,446.00
2023-05-01T03:20:55.464Z,446.00
2023-05-01T03:21:55.492Z,445.00
2023-05-01T03:22:55.558Z,445.00
2023-05-01T03:23:55.595Z,444.00
2023-05-01T03:24:55.649Z,446.00
2023-05-01T03:25:55.709Z,448.00
2023-05-01T03:26:55.737Z,446.00
2023-05-01T03:27:55.804Z,445.00
2023-05-01T03:28:55.849Z,443.00
2023-05-01T03:29:56.013Z,442.00
2023-05-01T03:30:55.946Z,443.00
2023-05-01T03:31:56.015Z,442.00
2023-05-01T03:32:56.067Z,443.00
2023-05-01T03:33:56.093Z,445.00
2023-05-01T03:34:56.172Z,443.00
2023-05-01T03:35:56.212Z,446.00
2023-05-01T03:36:56.268Z,446.00
2023-05-01T03:37:56.334Z,445.00
2023-05-01T03:38:56.406Z,440.00
2023-05-01T03:39:56.711Z,440.00
2023-05-01T03:40:56.542Z,440.00
2023-05-01T03:41:56.588Z,441.00
2023-05-01T03:42:56.661Z,442.00
2023-05-01T03:43:56.742Z,446.00
2023-05-01T03:44:56.796Z,444.00
2023-05-01T03:45:56.965Z,442.00
2023-05-01T03:46:56.947Z,443.00
2023-05-01T03:47:57.083Z,443.00
2023-05-01T03:48:57.103Z,442.00
2023-05-01T03:49:57.600Z,443.00
2023-05-01T03:50:57.259Z,443.00
2023-05-01T03:51:57.327Z,442.00
2023-05-01T03:52:57.382Z,443.00
2023-05-01T03:53:57.476Z,446.00
2023-05-01T03:54:57.553Z,443.00
2023-05-01T03:55:57.631Z,441.00
2023-05-01T03:56:57.726Z,440.00
2023-05-01T03:57:57.806Z,439.00
2023-05-01T03:58:57.906Z,440.00
2023-05-01T03:59:58.171Z,439.00
2023-05-01T04:00:58.066Z,439.00
2023-05-01T04:01:58.229Z,440.00
2023-05-01T04:02:58.428Z,439.00
2023-05-01T04:03:58.456Z,439.00
2023-05-01T04:04:58.419Z,440.00
2023-05-01T04:05:58.569Z,441.00
2023-05-01T04:06:58.591Z,441.00
2023-05-01T04:07:58.675Z,440.00
2023-05-01T04:08:58.748Z,437.00
2023-05-01T04:09:58.885Z,436.00
2023-05-01T04:10:58.909Z,437.00
2023-05-01T04:11:58.997Z,436.00
2023-05-01T04:12:59.072Z,438.00
2023-05-01T04:13:59.142Z,438.00
2023-05-01T04:14:59.225Z,438.00
2023-05-01T04:15:59.352Z,439.00
2023-05-01T04:16:59.368Z,439.00
2023-05-01T04:17:59.421Z,439.00
2023-05-01T04:18:59.478Z,440.00
2023-05-01T04:19:59.580Z,441.00
2023-05-01T04:20:59.635Z,442.00
2023-05-01T04:21:59.724Z,445.00
2023-05-01T04:22:59.798Z,446.00
2023-05-01T04:23:59.863Z,445.00
2023-05-01T04:24:59.931Z,444.00
2023-05-01T04:26:00.009Z,442.00
2023-05-01T04:27:00.121Z,442.00
2023-05-01T04:28:00.163Z,443.00
2023-05-01T04:29:00.231Z,443.00
2023-05-01T04:30:00.623Z,442.00
2023-05-01T04:31:00.506Z,443.00
2023-05-01T04:32:00.556Z,446.00
2023-05-01T04:33:00.569Z,447.00
2023-05-01T04:34:00.576Z,448.00
2023-05-01T04:35:00.585Z,447.00
2023-05-01T04:36:00.611Z,449.00
2023-05-01T04:37:00.626Z,449.00
2023-05-01T04:38:00.643Z,446.00
2023-05-01T04:39:00.656Z,449.00
2023-05-01T04:40:00.680Z,449.00
2023-05-01T04:41:00.696Z,449.00
2023-05-01T04:42:00.726Z,450.00
2023-05-01T04:43:00.793Z,451.00
2023-05-01T04:44:00.872Z,448.00
2023-05-01T04:45:00.951Z,447.00
2023-05-01T04:46:01.053Z,449.00
2023-05-01T04:47:01.167Z,448.00
2023-05-01T04:48:01.239Z,448.00
2023-05-01T04:49:01.314Z,449.00
2023-05-01T04:50:01.329Z,449.00
2023-05-01T04:51:01.368Z,451.00
2023-05-01T04:52:01.400Z,450.00
2023-05-01T04:53:01.428Z,451.00
2023-05-01T04:54:01.459Z,453.00
2023-05-01T04:55:01.479Z,454.00
2023-05-01T04:56:01.518Z,454.00
2023-05-01T04:57:01.536Z,452.00
2023-05-01T04:58:01.551Z,449.00
2023-05-01T04:59:01.595Z,452.00
2023-05-01T05:00:01.608Z,450.00
2023-05-01T05:01:01.691Z,449.00
2023-05-01T05:02:01.718Z,445.00
2023-05-01T05:03:01.753Z,446.00
2023-05-01T05:04:01.831Z,448.00
2023-05-01T05:05:01.811Z,447.00
2023-05-01T05:06:01.922Z,449.00
2023-05-01T05:07:01.948Z,449.00
2023-05-01T05:08:01.998Z,449.00
2023-05-01T05:09:01.999Z,447.00
2023-05-01T05:10:02.020Z,446.00
2023-05-01T05:11:02.058Z,446.00
2023-05-01T05:12:02.097Z,445.00
2023-05-01T05:13:02.085Z,444.00
2023-05-01T05:14:02.111Z,447.00
2023-05-01T05:15:02.131Z,447.00
2023-05-01T05:16:02.199Z,450.00
2023-05-01T05:17:02.189Z,451.00
2023-05-01T05:18:02.279Z,450.00
2023-05-01T05:19:02.239Z,450.00
2023-05-01T05:20:02.253Z,451.00
2023-05-01T05:21:02.276Z,449.00
2023-05-01T05:22:02.348Z,446.00
2023-05-01T05:23:02.341Z,444.00
2023-05-01T05:24:02.343Z,446.00
2023-05-01T05:25:02.346Z,445.00
2023-05-01T05:26:02.376Z,444.00
2023-05-01T05:27:02.407Z,442.00
2023-05-01T05:28:02.457Z,443.00
2023-05-01T05:29:02.489Z,440.00
2023-05-01T05:30:02.551Z,437.00
2023-05-01T05:31:02.577Z,437.00
2023-05-01T05:32:02.804Z,434.00
2023-05-01T05:33:02.761Z,431.00
2023-05-01T05:34:02.763Z,431.00
2023-05-01T05:35:02.814Z,430.00
2023-05-01T05:36:02.861Z,431.00
2023-05-01T05:37:02.876Z,433.00
2023-05-01T05:38:02.938Z,437.00
2023-05-01T05:39:03.023Z,436.00
2023-05-01T05:40:03.139Z,436.00
2023-05-01T05:41:03.187Z,436.00
2023-05-01T05:42:03.219Z,437.00
2023-05-01T05:43:03.232Z,434.00
2023-05-01T05:44:03.277Z,435.00
2023-05-01T05:45:03.264Z,435.00
2023-05-01T05:46:03.361Z,437.00
2023-05-01T05:47:03.360Z,437.00
2023-05-01T05:48:03.447Z,438.00
2023-05-01T05:49:03.409Z,438.00
2023-05-01T05:50:03.470Z,437.00
2023-05-01T05:51:03.587Z,435.00
2023-05-01T05:52:03.685Z,436.00
2023-05-01T05:53:03.711Z,435.00
2023-05-01T05:54:03.729Z,434.00
2023-05-01T05:55:03.794Z,434.00
2023-05-01T05:56:03.799Z,434.00
2023-05-01T05:57:03.833Z,439.00
2023-05-01T05:58:03.855Z,440.00
2023-05-01T05:59:03.869Z,442.00
2023-05-01T06:00:03.878Z,442.00
2023-05-01T06:01:03.899Z,441.00
2023-05-01T06:02:03.975Z,438.00
2023-05-01T06:03:04.265Z,439.00
2023-05-01T06:04:04.200Z,440.00
2023-05-01T06:05:04.369Z,439.00
2023-05-01T06:06:04.450Z,438.00
2023-05-01T06:07:04.456Z,438.00
2023-05-01T06:08:04.358Z,438.00
2023-05-01T06:09:04.400Z,438.00
2023-05-01T06:10:04.409Z,437.00
2023-05-01T06:11:04.441Z,435.00
2023-05-01T06:12:04.463Z,436.00
2023-05-01T06:13:14.089Z,437.00
2023-05-01T06:14:05.495Z,434.00
2023-05-01T06:15:04.506Z,437.00
2023-05-01T06:16:04.597Z,438.00
2023-05-01T06:17:04.545Z,439.00
2023-05-01T06:18:04.581Z,440.00
2023-05-01T06:19:04.580Z,440.00
2023-05-01T06:20:04.622Z,439.00
2023-05-01T06:21:04.614Z,438.00
2023-05-01T06:22:04.647Z,438.00
2023-05-01T06:23:04.656Z,436.00
2023-05-01T06:24:04.680Z,439.00
2023-05-01T06:25:04.698Z,437.00
2023-05-01T06:26:04.717Z,433.00
2023-05-01T06:27:04.729Z,435.00
2023-05-01T06:28:04.764Z,435.00
2023-05-01T06:29:04.773Z,437.00
2023-05-01T06:30:04.795Z,439.00
2023-05-01T06:31:04.857Z,436.00
2023-05-01T06:32:04.831Z,439.00
2023-05-01T06:33:04.933Z,438.00
2023-05-01T06:34:04.880Z,436.00
2023-05-01T06:35:04.906Z,434.00
2023-05-01T06:36:04.920Z,435.00
2023-05-01T06:37:04.951Z,434.00
2023-05-01T06:38:04.981Z,432.00
2023-05-01T06:39:04.995Z,430.00
2023-05-01T06:40:05.038Z,431.00
2023-05-01T06:41:05.029Z,430.00
2023-05-01T06:42:05.071Z,430.00
2023-05-01T06:43:05.080Z,427.00
2023-05-01T06:44:05.096Z,424.00
2023-05-01T06:45:05.112Z,422.00
2023-05-01T06:46:05.131Z,424.00
2023-05-01T06:47:05.223Z,425.00
2023-05-01T06:48:05.164Z,425.00
2023-05-01T06:49:05.172Z,423.00
2023-05-01T06:50:05.914Z,425.00
2023-05-01T06:51:05.209Z,428.00
2023-05-01T06:52:05.244Z,427.00
2023-05-01T06:53:05.252Z,427.00
2023-05-01T06:54:05.253Z,425.00
2023-05-01T06:55:05.289Z,426.00
2023-05-01T06:56:05.480Z,427.00
2023-05-01T06:57:05.432Z,427.00
2023-05-01T06:58:16.044Z,428.00
2023-05-01T06:59:06.490Z,431.00
2023-05-01T07:00:05.504Z,434.00
2023-05-01T07:01:05.603Z,435.00
2023-05-01T07:02:05.724Z,435.00
2023-05-01T07:03:05.596Z,436.00
2023-05-01T07:04:05.577Z,436.00
2023-05-01T07:05:05.627Z,438.00
2023-05-01T07:06:05.638Z,437.00
2023-05-01T07:07:05.647Z,438.00
2023-05-01T07:08:05.685Z,439.00
2023-05-01T07:09:05.694Z,439.00
2023-05-01T07:10:05.727Z,440.00
2023-05-01T07:11:05.762Z,439.00
2023-05-01T07:12:05.816Z,439.00
2023-05-01T07:13:05.810Z,434.00
2023-05-01T07:14:05.869Z,433.00
2023-05-01T07:15:05.867Z,434.00
2023-05-01T07:16:05.948Z,434.00
2023-05-01T07:17:05.910Z,431.00
2023-05-01T07:19:05.951Z,427.00
2023-05-01T07:20:05.982Z,431.00
2023-05-01T07:21:06.023Z,431.00
2023-05-01T07:22:06.025Z,432.00
2023-05-01T07:23:07.490Z,433.00
2023-05-01T07:24:06.065Z,431.00
2023-05-01T07:25:06.090Z,428.00
2023-05-01T07:26:06.128Z,430.00
2023-05-01T07:27:06.136Z,427.00
2023-05-01T07:28:06.156Z,428.00
2023-05-01T07:29:06.196Z,426.00
2023-05-01T07:30:06.212Z,426.00
2023-05-01T07:31:06.229Z,428.00
2023-05-01T07:32:06.327Z,429.00
2023-05-01T07:33:06.307Z,427.00
2023-05-01T07:34:06.395Z,427.00
2023-05-01T07:35:06.337Z,427.00
2023-05-01T07:36:06.345Z,428.00
2023-05-01T07:37:06.378Z,428.00
2023-05-01T07:38:06.393Z,426.00
2023-05-01T07:39:06.414Z,428.00
2023-05-01T07:40:06.450Z,429.00
2023-05-01T07:41:06.458Z,431.00
2023-05-01T07:42:06.497Z,429.00
2023-05-01T07:43:06.520Z,429.00
2023-05-01T07:44:06.539Z,427.00
2023-05-01T07:45:06.574Z,428.00
2023-05-01T07:46:06.611Z,429.00
2023-05-01T07:47:06.621Z,427.00
2023-05-01T07:48:06.683Z,431.00
2023-05-01T07:49:06.645Z,430.00
2023-05-01T07:50:06.675Z,431.00
2023-05-01T07:51:06.688Z,430.00
2023-05-01T07:52:06.714Z,430.00
2023-05-01T07:53:06.714Z,428.00
2023-05-01T07:54:06.746Z,429.00
2023-05-01T07:55:06.750Z,430.00
2023-05-01T07:56:06.778Z,429.00
2023-05-01T07:57:06.804Z,429.00
2023-05-01T07:58:06.906Z,428.00
2023-05-01T07:59:06.923Z,431.00
2023-05-01T08:00:06.954Z,430.00
2023-05-01T08:01:06.955Z,427.00
2023-05-01T08:02:07.030Z,423.00
2023-05-01T08:03:07.342Z,422.00
2023-05-01T08:04:07.162Z,424.00
2023-05-01T08:05:07.061Z,423.00
2023-05-01T08:06:07.268Z,422.00
2023-05-01T08:07:07.080Z,422.00
2023-05-01T08:08:07.089Z,423.00
2023-05-01T08:09:07.114Z,422.00
2023-05-01T08:10:07.136Z,423.00
2023-05-01T08:11:07.164Z,427.00
2023-05-01T08:12:07.185Z,428.00
2023-05-01T08:13:07.195Z,426.00
2023-05-01T08:14:07.219Z,423.00
2023-05-01T08:15:07.231Z,423.00
2023-05-01T08:16:07.289Z,427.00
2023-05-01T08:17:07.269Z,430.00
2023-05-01T08:18:07.343Z,428.00
2023-05-01T08:19:07.301Z,429.00
2023-05-01T08:20:07.313Z,427.00
2023-05-01T08:21:07.343Z,426.00
2023-05-01T08:22:07.351Z,426.00
2023-05-01T08:23:07.380Z,424.00
2023-05-01T08:24:07.398Z,428.00
2023-05-01T08:25:07.412Z,427.00
2023-05-01T08:26:07.432Z,425.00
2023-05-01T08:27:07.454Z,424.00
2023-05-01T08:28:07.490Z,426.00
2023-05-01T08:29:07.488Z,426.00
2023-05-01T08:30:07.509Z,426.00
2023-05-01T08:31:07.543Z,425.00
2023-05-01T08:32:07.540Z,426.00
2023-05-01T08:33:07.594Z,425.00
2023-05-01T08:34:07.580Z,425.00
2023-05-01T08:35:07.624Z,423.00
2023-05-01T08:36:07.628Z,425.00
2023-05-01T08:37:07.650Z,425.00
2023-05-01T08:38:07.780Z,428.00
2023-05-01T08:39:07.730Z,427.00
2023-05-01T08:40:07.715Z,427.00
2023-05-01T08:41:07.760Z,430.00
2023-05-01T08:42:07.789Z,431.00
2023-05-01T08:43:07.814Z,430.00
2023-05-01T08:44:07.830Z,430.00
2023-05-01T08:45:07.898Z,428.00
2023-05-01T08:46:07.990Z,430.00
2023-05-01T08:47:08.161Z,430.00
2023-05-01T08:48:08.107Z,430.00
2023-05-01T08:49:08.074Z,432.00
2023-05-01T08:50:08.118Z,432.00
2023-05-01T08:51:08.138Z,432.00
2023-05-01T08:52:08.212Z,431.00
2023-05-01T08:53:08.333Z,433.00
2023-05-01T08:54:08.352Z,433.00
2023-05-01T08:55:08.390Z,434.00
2023-05-01T08:56:08.456Z,433.00
2023-05-01T08:57:10.378Z,429.00
2023-05-01T08:58:08.528Z,431.00
2023-05-01T08:59:08.569Z,428.00
2023-05-01T09:00:08.633Z,426.00
2023-05-01T09:01:08.732Z,429.00
2023-05-01T09:02:08.859Z,433.00
2023-05-01T09:03:08.912Z,434.00
2023-05-01T09:04:08.961Z,431.00
2023-05-01T09:05:08.959Z,430.00
2023-05-01T09:06:09.081Z,429.00
2023-05-01T09:07:09.121Z,428.00
2023-05-01T09:08:09.217Z,430.00
2023-05-01T09:09:09.294Z,432.00
2023-05-01T09:10:09.373Z,433.00
2023-05-01T09:11:09.463Z,428.00
2023-05-01T09:12:09.547Z,426.00
2023-05-01T09:13:09.610Z,428.00
2023-05-01T09:14:09.581Z,430.00
2023-05-01T09:15:09.631Z,433.00
2023-05-01T09:16:09.686Z,433.00
2023-05-01T09:17:09.652Z,433.00
2023-05-01T09:18:09.727Z,437.00
2023-05-01T09:19:09.750Z,435.00
2023-05-01T09:20:09.744Z,434.00
2023-05-01T09:21:09.803Z,438.00
2023-05-01T09:22:09.906Z,436.00
2023-05-01T09:23:10.024Z,440.00
2023-05-01T09:24:10.099Z,440.00
2023-05-01T09:25:10.182Z,439.00
2023-05-01T09:26:10.280Z,440.00
2023-05-01T09:27:10.351Z,437.00
2023-05-01T09:28:10.441Z,435.00
2023-05-01T09:29:10.530Z,433.00
2023-05-01T09:30:10.620Z,434.00
2023-05-01T09:31:10.694Z,435.00
2023-05-01T09:32:10.810Z,435.00
2023-05-01T09:33:11.015Z,437.00
2023-05-01T09:34:10.943Z,439.00
2023-05-01T09:35:11.035Z,440.00
2023-05-01T09:36:11.102Z,441.00
2023-05-01T09:37:11.187Z,435.00
2023-05-01T09:38:11.288Z,436.00
2023-05-01T09:39:11.359Z,434.00
2023-05-01T09:40:11.434Z,435.00
2023-05-01T09:41:11.499Z,434.00
2023-05-01T09:42:11.575Z,434.00
2023-05-01T09:43:11.965Z,435.00
2023-05-01T09:44:11.748Z,436.00
2023-05-01T09:45:11.812Z,436.00
2023-05-01T09:46:11.980Z,436.00
2023-05-01T09:47:11.965Z,436.00
2023-05-01T09:48:12.132Z,435.00
2023-05-01T09:49:12.097Z,435.00
2023-05-01T09:50:12.165Z,434.00
2023-05-01T09:51:12.235Z,435.00
2023-05-01T09:52:12.325Z,436.00
2023-05-01T09:53:12.387Z,438.00
2023-05-01T09:54:12.443Z,438.00
2023-05-01T09:55:12.514Z,437.00
2023-05-01T09:56:12.567Z,439.00
2023-05-01T09:57:12.641Z,439.00
2023-05-01T09:58:12.694Z,439.00
2023-05-01T09:59:12.774Z,439.00
2023-05-01T10:00:12.824Z,440.00
2023-05-01T10:01:12.894Z,441.00
2023-05-01T10:02:13.004Z,442.00
2023-05-01T10:03:13.097Z,442.00
2023-05-01T10:04:13.074Z,442.00
2023-05-01T10:05:13.129Z,441.00
2023-05-01T10:06:13.220Z,441.00
2023-05-01T10:07:13.248Z,438.00
2023-05-01T10:08:13.303Z,438.00
2023-05-01T10:09:13.351Z,437.00
2023-05-01T10:10:13.448Z,436.00
2023-05-01T10:11:13.490Z,433.00
2023-05-01T10:12:13.512Z,429.00
2023-05-01T10:13:13.580Z,428.00
2023-05-01T10:14:13.642Z,428.00
2023-05-01T10:15:24.750Z,432.00
2023-05-01T10:16:14.751Z,432.00
2023-05-01T10:17:13.831Z,435.00
2023-05-01T10:18:13.773Z,433.00
2023-05-01T10:19:13.716Z,433.00
2023-05-01T10:20:13.768Z,436.00
2023-05-01T10:21:13.753Z,431.00
2023-05-01T10:22:13.757Z,427.00
2023-05-01T10:23:13.782Z,430.00
2023-05-01T10:24:13.808Z,433.00
2023-05-01T10:25:13.800Z,436.00
2023-05-01T10:26:13.795Z,438.00
2023-05-01T10:27:13.865Z,438.00
2023-05-01T10:28:13.828Z,440.00
2023-05-01T10:29:13.845Z,440.00
2023-05-01T10:30:13.984Z,443.00
2023-05-01T10:31:13.920Z,443.00
2023-05-01T10:32:13.885Z,443.00
2023-05-01T10:33:13.957Z,441.00
2023-05-01T10:34:13.926Z,442.00
2023-05-01T10:35:13.979Z,442.00
2023-05-01T10:36:14.023Z,441.00
2023-05-01T10:37:14.078Z,439.00
2023-05-01T10:38:14.121Z,438.00
2023-05-01T10:39:14.156Z,442.00
2023-05-01T10:40:14.211Z,442.00
2023-05-01T10:41:14.246Z,446.00
2023-05-01T10:42:14.298Z,447.00
2023-05-01T10:43:14.345Z,448.00
2023-05-01T10:44:14.386Z,444.00
2023-05-01T10:45:14.443Z,444.00
2023-05-01T10:46:14.482Z,443.00
2023-05-01T10:47:14.494Z,442.00
2023-05-01T10:48:14.543Z,443.00
2023-05-01T10:49:14.566Z,442.00
2023-05-01T10:50:14.668Z,440.00
2023-05-01T10:51:14.669Z,443.00
2023-05-01T10:52:14.689Z,445.00
2023-05-01T10:53:14.868Z,447.00
2023-05-01T10:54:14.770Z,445.00
2023-05-01T10:55:14.818Z,444.00
2023-05-01T10:56:14.852Z,442.00
2023-05-01T10:57:14.886Z,442.00
2023-05-01T10:58:14.974Z,443.00
2023-05-01T10:59:14.966Z,439.00
2023-05-01T11:00:15.091Z,439.00
2023-05-01T11:01:15.117Z,438.00
2023-05-01T11:02:15.195Z,437.00
2023-05-01T11:03:15.147Z,439.00
2023-05-01T11:04:15.166Z,441.00
2023-05-01T11:05:15.252Z,444.00
2023-05-01T11:06:15.327Z,447.00
2023-05-01T11:07:15.457Z,451.00
2023-05-01T11:08:15.311Z,451.00
2023-05-01T11:09:15.345Z,448.00
2023-05-01T11:10:15.396Z,449.00
2023-05-01T11:11:15.424Z,449.00
2023-05-01T11:12:15.457Z,447.00
2023-05-01T11:13:15.512Z,447.00
2023-05-01T11:14:15.529Z,445.00
2023-05-01T11:15:15.565Z,445.00
2023-05-01T11:16:15.670Z,449.00
2023-05-01T11:17:15.637Z,447.00
2023-05-01T11:18:15.720Z,447.00
2023-05-01T11:19:15.710Z,442.00
2023-05-01T11:20:15.745Z,445.00
2023-05-01T11:21:15.794Z,445.00
2023-05-01T11:22:15.829Z,449.00
2023-05-01T11:23:15.851Z,451.00
2023-05-01T11:24:15.882Z,449.00
2023-05-01T11:25:15.916Z,449.00
2023-05-01T11:26:15.944Z,452.00
2023-05-01T11:27:15.988Z,450.00
2023-05-01T11:28:16.030Z,448.00
2023-05-01T11:29:16.111Z,447.00
2023-05-01T11:30:16.098Z,444.00
2023-05-01T11:31:16.137Z,445.00
2023-05-01T11:32:16.264Z,444.00
2023-05-01T11:33:16.230Z,443.00
2023-05-01T11:34:16.224Z,442.00
2023-05-01T11:35:16.255Z,443.00
2023-05-01T11:36:16.288Z,445.00
2023-05-01T11:37:16.319Z,444.00
2023-05-01T11:38:16.352Z,443.00
2023-05-01T11:39:16.402Z,442.00
2023-05-01T11:40:16.420Z,441.00
2023-05-01T11:41:16.664Z,444.00
2023-05-01T11:42:16.450Z,443.00
2023-05-01T11:43:16.457Z,443.00
2023-05-01T11:44:16.477Z,440.00
2023-05-01T11:45:16.497Z,441.00
2023-05-01T11:46:16.545Z,439.00
2023-05-01T11:47:16.545Z,439.00
2023-05-01T11:48:16.625Z,439.00
2023-05-01T11:49:16.577Z,439.00
2023-05-01T11:50:16.585Z,439.00
2023-05-01T11:51:16.620Z,433.00
2023-05-01T11:52:16.618Z,441.00
2023-05-01T11:53:16.657Z,441.00
2023-05-01T11:54:16.696Z,445.00
2023-05-01T11:55:16.683Z,440.00
2023-05-01T11:56:26.039Z,438.00
2023-05-01T11:57:17.717Z,438.00
2023-05-01T11:58:16.741Z,436.00
2023-05-01T11:59:17.677Z,434.00
2023-05-01T12:00:16.727Z,437.00
2023-05-01T12:01:16.777Z,439.00
2023-05-01T12:02:16.776Z,438.00
2023-05-01T12:03:16.849Z,439.00
2023-05-01T12:04:16.963Z,437.00
2023-05-01T12:05:16.822Z,436.00
2023-05-01T12:06:16.921Z,433.00
2023-05-01T12:07:16.809Z,437.00
2023-05-01T12:08:16.806Z,438.00
2023-05-01T12:09:16.852Z,433.00
2023-05-01T12:10:16.892Z,436.00
2023-05-01T12:11:16.920Z,439.00
2023-05-01T12:12:16.958Z,442.00
2023-05-01T12:13:17.031Z,441.00
2023-05-01T12:14:17.071Z,441.00
2023-05-01T12:15:17.154Z,441.00
2023-05-01T12:16:17.354Z,440.00
2023-05-01T12:17:17.362Z,439.00
2023-05-01T12:18:17.443Z,437.00
2023-05-01T12:19:17.538Z,438.00
2023-05-01T12:20:17.495Z,435.00
2023-05-01T12:21:17.555Z,436.00
2023-05-01T12:22:17.637Z,431.00
2023-05-01T12:23:17.701Z,432.00
2023-05-01T12:24:17.772Z,431.00
2023-05-01T12:25:17.835Z,430.00
2023-05-01T12:26:17.896Z,435.00
2023-05-01T12:27:17.929Z,435.00
2023-05-01T12:28:18.006Z,436.00
2023-05-01T12:29:18.073Z,433.00
2023-05-01T12:30:18.142Z,435.00